Time;durP1;ratioP1;P1;durP2;ratioP2;P2;SDS_P1;SDS_P2;PMS_P1;PMS_P2;Temp;Humidity;BMP_temperature;BMP_pressure;BME280_temperature;BME280_humidity;BME280_pressure;Samples;Min_cycle;Max_cycle;Signal;HPM_P1;HPM_P2
2023/04/21 00:02:22;;;;;;;15.90;11.30;;;9.30;5.80;;;;;;5098254;28;20171;-82
2023/04/21 00:04:48;;;;;;;14.83;11.13;;;9.30;28.70;;;;;;5099225;28;20168;-81
2023/04/21 00:07:14;;;;;;;15.47;11.13;;;9.20;92.30;;;;;;5099437;28;20227;-82
2023/04/21 00:09:40;;;;;;;15.13;11.23;;;9.20;99.90;;;;;;5099245;28;20196;-82
2023/04/21 00:12:06;;;;;;;17.53;12.43;;;9.20;99.90;;;;;;5099311;28;20183;-82
2023/04/21 00:14:31;;;;;;;19.67;13.33;;;9.20;99.90;;;;;;5097814;28;20176;-81
2023/04/21 00:16:59;;;;;;;19.90;14.20;;;9.20;99.90;;;;;;5099008;28;20199;-81
2023/04/21 00:19:24;;;;;;;19.63;13.73;;;9.10;99.90;;;;;;5098904;28;20172;-82
2023/04/21 00:21:50;;;;;;;20.83;14.87;;;9.00;99.90;;;;;;5097896;28;20186;-81
2023/04/21 00:24:15;;;;;;;21.23;14.00;;;9.00;99.90;;;;;;5099081;28;20172;-81
2023/04/21 00:26:41;;;;;;;19.97;13.97;;;9.00;99.90;;;;;;5099306;28;20223;-81
2023/04/21 00:29:07;;;;;;;20.27;14.47;;;9.00;99.90;;;;;;5097370;28;20208;-82
2023/04/21 00:31:32;;;;;;;21.83;15.57;;;9.00;99.90;;;;;;5097563;28;20267;-81
2023/04/21 00:33:58;;;;;;;18.83;13.47;;;8.90;99.90;;;;;;5098707;28;20176;-81
2023/04/21 00:36:23;;;;;;;22.63;15.07;;;8.90;99.90;;;;;;5099032;28;20255;-82
2023/04/21 00:38:49;;;;;;;18.80;13.97;;;9.00;99.90;;;;;;5097534;28;20227;-82
2023/04/21 00:41:15;;;;;;;18.57;13.27;;;9.00;99.90;;;;;;5098867;28;20179;-82
2023/04/21 00:44:04;;;;;;;19.70;13.70;;;9.00;99.90;;;;;;5098213;28;20180;-81
2023/04/21 00:46:29;;;;;;;17.30;12.57;;;9.00;99.90;;;;;;5097963;28;20218;-81
2023/04/21 00:48:55;;;;;;;21.27;14.57;;;8.90;99.90;;;;;;5098195;28;20218;-81
2023/04/21 00:51:21;;;;;;;22.33;15.73;;;8.90;99.90;;;;;;5097846;28;20175;-82
2023/04/21 00:53:47;;;;;;;20.33;14.13;;;8.90;99.90;;;;;;5097993;28;20271;-81
2023/04/21 00:56:12;;;;;;;20.37;14.80;;;8.90;99.90;;;;;;5096975;28;20192;-82
2023/04/21 00:58:41;;;;;;;18.53;14.03;;;8.80;99.90;;;;;;5097007;28;20241;-82
2023/04/21 01:01:07;;;;;;;18.33;14.20;;;8.80;99.90;;;;;;5098643;28;20203;-81
2023/04/21 01:03:32;;;;;;;17.70;13.10;;;8.80;99.90;;;;;;5098022;28;20183;-81
2023/04/21 01:05:58;;;;;;;16.67;12.17;;;8.80;99.90;;;;;;5097117;28;20623;-82
2023/04/21 01:08:25;;;;;;;17.27;12.80;;;8.90;99.90;;;;;;5096389;28;20298;-81
2023/04/21 01:10:50;;;;;;;17.80;13.47;;;8.90;99.90;;;;;;5096721;28;20654;-82
2023/04/21 01:13:19;;;;;;;18.03;13.27;;;8.90;99.90;;;;;;5097289;28;20191;-82
2023/04/21 01:15:45;;;;;;;19.37;12.67;;;9.00;99.90;;;;;;5096354;28;20236;-82
2023/04/21 01:18:11;;;;;;;17.33;12.20;;;9.00;99.90;;;;;;5097910;28;20170;-82
2023/04/21 01:20:37;;;;;;;16.53;12.00;;;9.00;99.90;;;;;;5097516;28;20241;-81
2023/04/21 01:23:03;;;;;;;18.90;13.53;;;9.10;99.90;;;;;;5097904;28;20267;-81
2023/04/21 01:25:29;;;;;;;18.13;13.53;;;9.10;99.90;;;;;;5097872;28;20191;-81
2023/04/21 01:27:54;;;;;;;17.30;12.40;;;9.00;99.90;;;;;;5096321;28;20175;-81
2023/04/21 01:30:20;;;;;;;20.40;13.67;;;8.90;99.90;;;;;;5097947;28;20203;-80
2023/04/21 01:32:45;;;;;;;17.63;12.73;;;8.90;99.90;;;;;;5096007;28;20225;-81
2023/04/21 01:35:11;;;;;;;19.17;13.13;;;8.90;99.90;;;;;;5098023;28;20179;-82
2023/04/21 01:37:37;;;;;;;18.20;12.47;;;8.90;99.90;;;;;;5096686;28;20188;-81
2023/04/21 01:40:06;;;;;;;17.13;12.57;;;9.00;99.90;;;;;;5096236;28;20232;-81
2023/04/21 01:42:33;;;;;;;17.43;12.60;;;9.00;99.90;;;;;;5097796;28;20183;-81
2023/04/21 01:44:59;;;;;;;17.07;12.27;;;9.00;99.90;;;;;;5095733;28;20179;-81
2023/04/21 01:47:25;;;;;;;16.93;12.27;;;8.90;99.90;;;;;;5095448;28;20250;-81
2023/04/21 01:49:51;;;;;;;15.60;11.50;;;8.90;99.90;;;;;;5096986;28;20200;-81
2023/04/21 01:52:17;;;;;;;16.03;11.00;;;8.80;99.90;;;;;;5096278;28;20217;-81
2023/04/21 01:54:42;;;;;;;14.63;10.87;;;8.90;99.90;;;;;;5096148;28;20271;-81
2023/04/21 01:57:08;;;;;;;15.53;10.57;;;8.90;99.90;;;;;;5097229;28;20194;-81
2023/04/21 01:59:34;;;;;;;15.13;10.43;;;8.80;99.90;;;;;;5096824;28;20275;-81
2023/04/21 02:01:59;;;;;;;15.37;10.70;;;8.80;99.90;;;;;;5095411;28;20180;-81
2023/04/21 02:04:25;;;;;;;14.53;10.83;;;8.80;99.90;;;;;;5096440;28;20175;-81
2023/04/21 02:06:50;;;;;;;16.73;11.60;;;8.90;99.90;;;;;;5095477;28;20195;-81
2023/04/21 02:09:16;;;;;;;16.53;11.60;;;8.90;99.90;;;;;;5096905;28;20213;-81
2023/04/21 02:11:41;;;;;;;16.40;11.20;;;8.90;99.90;;;;;;5096743;28;20185;-81
2023/04/21 02:14:07;;;;;;;16.50;12.23;;;8.90;99.90;;;;;;5096515;28;20185;-82
2023/04/21 02:16:33;;;;;;;17.60;11.60;;;8.90;99.90;;;;;;5094977;28;20202;-81
2023/04/21 02:19:02;;;;;;;16.73;11.17;;;9.00;99.90;;;;;;5095378;28;20587;-81
2023/04/21 02:21:27;;;;;;;16.57;12.07;;;9.10;99.90;;;;;;5096680;28;20177;-82
2023/04/21 02:23:53;;;;;;;17.20;11.40;;;9.10;99.90;;;;;;5096788;28;20176;-81
2023/04/21 02:26:19;;;;;;;15.30;11.50;;;9.10;99.90;;;;;;5096591;28;20666;-81
2023/04/21 02:28:46;;;;;;;17.37;12.30;;;9.20;99.90;;;;;;5095475;28;20216;-81
2023/04/21 02:31:12;;;;;;;14.90;11.57;;;9.10;99.90;;;;;;5096704;28;20179;-82
2023/04/21 02:33:37;;;;;;;18.03;12.47;;;9.30;99.90;;;;;;5096286;28;20195;-81
2023/04/21 02:36:03;;;;;;;16.83;12.27;;;9.40;94.90;;;;;;5095312;28;20573;-81
2023/04/21 02:38:29;;;;;;;22.40;12.43;;;9.30;99.90;;;;;;5095392;28;20210;-81
2023/04/21 02:40:56;;;;;;;20.37;13.00;;;9.30;99.90;;;;;;5096240;28;20229;-81
2023/04/21 02:43:21;;;;;;;17.10;12.43;;;9.20;99.90;;;;;;5095165;28;20191;-80
2023/04/21 02:45:47;;;;;;;18.77;13.23;;;9.10;99.90;;;;;;5095444;28;20552;-81
2023/04/21 02:48:12;;;;;;;18.10;13.03;;;9.10;99.90;;;;;;5095204;28;20180;-82
2023/04/21 02:50:39;;;;;;;18.40;12.37;;;9.00;99.90;;;;;;5096242;28;20200;-81
2023/04/21 02:53:04;;;;;;;17.53;12.70;;;8.90;99.90;;;;;;5096054;28;20164;-81
2023/04/21 02:55:30;;;;;;;16.83;12.00;;;8.90;99.90;;;;;;5096636;28;20167;-79
2023/04/21 02:57:56;;;;;;;16.77;11.70;;;8.80;99.90;;;;;;5095108;28;20206;-81
2023/04/21 03:00:21;;;;;;;16.63;12.13;;;8.80;99.90;;;;;;5093834;28;20236;-81
2023/04/21 03:02:47;;;;;;;17.63;12.00;;;8.70;99.90;;;;;;5095977;28;20173;-81
2023/04/21 03:05:12;;;;;;;17.50;12.00;;;8.70;99.90;;;;;;5096370;28;20172;-81
2023/04/21 03:07:38;;;;;;;16.40;11.30;;;8.60;99.90;;;;;;5094606;28;20246;-81
2023/04/21 03:10:05;;;;;;;16.70;11.70;;;8.60;99.90;;;;;;5094586;28;20208;-82
2023/04/21 03:12:31;;;;;;;17.03;11.73;;;8.60;99.90;;;;;;5095809;28;20180;-81
2023/04/21 03:14:57;;;;;;;16.37;11.03;;;8.60;99.90;;;;;;5094748;28;20176;-81
2023/04/21 03:17:23;;;;;;;16.53;11.20;;;8.60;99.90;;;;;;5096226;28;20223;-81
2023/04/21 03:19:49;;;;;;;15.00;11.67;;;8.60;99.90;;;;;;5095285;28;20199;-82
2023/04/21 03:22:14;;;;;;;14.40;10.87;;;8.60;99.90;;;;;;5096068;28;20550;-81
2023/04/21 03:24:40;;;;;;;16.50;10.77;;;8.60;99.90;;;;;;5096367;28;20236;-81
2023/04/21 03:27:05;;;;;;;14.20;10.40;;;8.50;99.90;;;;;;5094708;28;20258;-81
2023/04/21 03:29:31;;;;;;;14.77;10.90;;;8.50;99.90;;;;;;5095002;28;20242;-81
2023/04/21 03:31:56;;;;;;;16.80;11.60;;;8.50;99.90;;;;;;5094587;28;20164;-81
2023/04/21 03:34:22;;;;;;;15.87;11.47;;;8.60;99.90;;;;;;5094812;28;20182;-81
2023/04/21 03:36:47;;;;;;;17.00;11.57;;;8.60;99.90;;;;;;5095525;28;20278;-81
2023/04/21 03:39:13;;;;;;;14.73;10.33;;;8.60;99.90;;;;;;5094802;28;20180;-81
2023/04/21 03:41:39;;;;;;;16.03;11.20;;;8.60;99.90;;;;;;5094619;28;20566;-81
2023/04/21 03:44:04;;;;;;;15.90;10.90;;;8.50;99.90;;;;;;5094724;28;20267;-81
2023/04/21 03:46:30;;;;;;;17.13;11.70;;;8.60;99.90;;;;;;5095956;28;20280;-81
2023/04/21 03:48:55;;;;;;;16.73;11.07;;;8.60;99.90;;;;;;5094507;28;20227;-81
2023/04/21 03:51:21;;;;;;;15.50;11.07;;;8.60;99.90;;;;;;5094200;28;20171;-82
2023/04/21 03:53:46;;;;;;;15.47;10.63;;;8.50;99.90;;;;;;5092859;28;20172;-81
2023/04/21 03:56:12;;;;;;;14.17;10.50;;;8.50;99.90;;;;;;5108312;28;20203;-81
2023/04/21 03:58:37;;;;;;;15.60;10.17;;;8.50;99.90;;;;;;5104066;28;20178;-81
2023/04/21 04:01:06;;;;;;;16.67;10.50;;;8.50;99.90;;;;;;5094112;28;20190;-81
2023/04/21 04:03:32;;;;;;;12.10;9.53;;;8.50;99.90;;;;;;5104277;28;20187;-81
2023/04/21 04:05:58;;;;;;;15.07;10.13;;;8.50;99.90;;;;;;5109570;28;20199;-81
2023/04/21 04:08:24;;;;;;;13.00;9.17;;;8.50;99.90;;;;;;5114692;28;20209;-81
2023/04/21 04:10:50;;;;;;;13.40;9.67;;;8.50;99.90;;;;;;5117274;28;20177;-81
2023/04/21 04:13:15;;;;;;;15.40;11.07;;;8.60;99.90;;;;;;5118411;28;20171;-81
2023/04/21 04:15:41;;;;;;;13.87;9.97;;;8.50;99.90;;;;;;5118737;28;20178;-81
2023/04/21 04:18:07;;;;;;;14.87;9.80;;;8.60;99.90;;;;;;5120226;28;20208;-81
2023/04/21 04:20:32;;;;;;;11.73;9.00;;;8.60;99.90;;;;;;5118347;28;20175;-80
2023/04/21 04:22:58;;;;;;;14.10;9.30;;;8.60;99.90;;;;;;5111121;28;20240;-81
2023/04/21 04:25:23;;;;;;;14.43;10.33;;;8.50;99.90;;;;;;5116394;28;20299;-81
2023/04/21 04:27:49;;;;;;;12.87;9.77;;;8.50;99.90;;;;;;5119203;28;20191;-82
2023/04/21 04:30:15;;;;;;;14.90;10.37;;;8.50;99.90;;;;;;5119224;28;20205;-82
2023/04/21 04:32:41;;;;;;;15.17;10.90;;;8.60;99.90;;;;;;5118012;28;20202;-81
2023/04/21 04:35:08;;;;;;;13.97;10.10;;;8.70;99.90;;;;;;5118192;28;20186;-81
2023/04/21 04:37:37;;;;;;;14.77;9.93;;;8.70;99.90;;;;;;5116460;28;20249;-86
2023/04/21 04:40:13;;;;;;;15.13;10.73;;;8.80;99.90;;;;;;5116204;28;20704;-84
2023/04/21 04:42:39;;;;;;;15.00;11.13;;;8.80;99.90;;;;;;5115369;28;20188;-84
2023/04/21 04:45:07;;;;;;;14.17;10.50;;;8.80;99.90;;;;;;5114067;28;20265;-85
2023/04/21 04:47:33;;;;;;;14.73;10.37;;;8.80;99.90;;;;;;5122610;22;20230;-87
2023/04/21 04:49:58;;;;;;;14.50;10.53;;;8.80;99.90;;;;;;5094006;28;20203;-87
2023/04/21 04:52:24;;;;;;;14.07;9.93;;;8.90;99.90;;;;;;5093260;28;20194;-87
2023/04/21 04:54:50;;;;;;;14.67;10.43;;;8.90;99.90;;;;;;5093414;28;20258;-86
2023/04/21 04:57:15;;;;;;;13.53;10.00;;;8.90;99.90;;;;;;5093665;28;20197;-86
2023/04/21 04:59:41;;;;;;;14.90;10.73;;;8.90;99.90;;;;;;5093277;28;20181;-88
2023/04/21 05:02:06;;;;;;;14.13;9.73;;;8.90;99.90;;;;;;5093190;28;20172;-88
2023/04/21 05:04:35;;;;;;;16.20;10.87;;;8.90;99.90;;;;;;5093095;28;20317;-88
2023/04/21 05:07:01;;;;;;;14.50;10.33;;;8.90;99.90;;;;;;5094051;28;20191;-88
2023/04/21 05:09:27;;;;;;;15.07;10.87;;;9.00;99.90;;;;;;5094749;28;20260;-88
2023/04/21 05:11:52;;;;;;;14.53;10.13;;;9.00;99.90;;;;;;5092921;28;20174;-89
2023/04/21 05:14:18;;;;;;;16.63;10.80;;;9.10;99.90;;;;;;5094246;28;20259;-88
2023/04/21 05:16:43;;;;;;;15.03;10.40;;;9.10;99.90;;;;;;5101307;28;20195;-88
2023/04/21 05:19:09;;;;;;;15.73;10.40;;;9.20;99.90;;;;;;5109728;28;20555;-88
2023/04/21 05:21:35;;;;;;;13.57;9.73;;;9.20;99.90;;;;;;5112807;28;20175;-88
2023/04/21 05:24:00;;;;;;;14.93;10.73;;;9.20;99.90;;;;;;5112680;28;20554;-85
2023/04/21 05:26:27;;;;;;;13.53;9.87;;;9.30;99.90;;;;;;5113615;28;20230;-87
2023/04/21 05:28:57;;;;;;;13.27;10.30;;;9.30;99.90;;;;;;5114645;28;20227;-88
2023/04/21 05:31:23;;;;;;;13.03;10.20;;;9.30;99.90;;;;;;5112952;28;20174;-87
2023/04/21 05:33:49;;;;;;;14.17;10.40;;;9.30;99.90;;;;;;5114101;28;20171;-87
2023/04/21 05:36:15;;;;;;;14.97;11.00;;;9.40;99.90;;;;;;5112849;28;20191;-88
2023/04/21 05:38:40;;;;;;;14.00;10.27;;;9.40;99.90;;;;;;5114161;28;20171;-86
2023/04/21 05:41:06;;;;;;;15.77;11.27;;;9.40;99.90;;;;;;5115795;28;20258;-85
2023/04/21 05:43:32;;;;;;;11.37;8.47;;;9.50;99.90;;;;;;5115708;28;20661;-82
2023/04/21 05:46:03;;;;;;;15.40;10.10;;;9.60;99.90;;;;;;5113718;28;20175;-81
2023/04/21 05:48:28;;;;;;;15.90;11.17;;;9.70;99.90;;;;;;5114244;28;20202;-80
2023/04/21 05:50:54;;;;;;;14.20;10.53;;;9.80;99.90;;;;;;5115224;28;20171;-82
2023/04/21 05:53:22;;;;;;;14.87;11.03;;;9.90;99.90;;;;;;5114014;28;20172;-82
2023/04/21 05:55:48;;;;;;;14.93;10.40;;;10.00;26.20;;;;;;5113939;28;20164;-81
2023/04/21 05:58:14;;;;;;;16.33;11.00;;;10.10;15.50;;;;;;5115648;28;20193;-81
2023/04/21 06:00:39;;;;;;;15.23;10.20;;;10.20;1.00;;;;;;5115317;28;20171;-83
2023/04/21 06:03:05;;;;;;;14.90;10.70;;;10.20;1.00;;;;;;5115330;28;20232;-83
2023/04/21 06:05:31;;;;;;;13.53;10.50;;;10.40;1.00;;;;;;5116202;28;20164;-83
2023/04/21 06:07:57;;;;;;;14.30;10.73;;;10.50;1.00;;;;;;5115984;28;20188;-83
2023/04/21 06:10:22;;;;;;;13.43;10.10;;;10.50;1.00;;;;;;5113243;28;20554;-87
2023/04/21 06:12:48;;;;;;;13.73;10.00;;;10.50;1.00;;;;;;5116447;28;20263;-84
2023/04/21 06:15:14;;;;;;;14.17;10.77;;;10.50;1.00;;;;;;5117338;28;20179;-84
2023/04/21 06:17:39;;;;;;;15.30;11.67;;;10.50;1.00;;;;;;5113775;28;20191;-84
2023/04/21 06:20:06;;;;;;;15.17;11.37;;;10.50;1.00;;;;;;5114228;28;20184;-84
2023/04/21 06:22:32;;;;;;;16.33;11.50;;;10.50;1.00;;;;;;5114664;28;20172;-84
2023/04/21 06:24:58;;;;;;;17.37;11.40;;;10.50;1.00;;;;;;5113000;28;20178;-85
2023/04/21 06:27:23;;;;;;;16.53;11.43;;;10.60;1.00;;;;;;5113048;28;20194;-85
2023/04/21 06:29:54;;;;;;;17.13;11.33;;;10.60;1.00;;;;;;5114206;28;20246;-85
2023/04/21 06:32:20;;;;;;;17.57;11.77;;;10.60;1.00;;;;;;5114580;28;20199;-84
2023/04/21 06:34:46;;;;;;;16.13;11.83;;;10.60;1.00;;;;;;5114491;28;20167;-84
2023/04/21 06:37:11;;;;;;;14.37;10.37;;;10.60;1.00;;;;;;5113099;28;20237;-84
2023/04/21 06:39:37;;;;;;;15.27;10.90;;;10.60;1.00;;;;;;5112677;28;20172;-83
2023/04/21 06:42:02;;;;;;;16.43;12.17;;;10.60;1.00;;;;;;5112704;28;20224;-84
2023/04/21 06:44:28;;;;;;;16.73;11.90;;;10.60;1.00;;;;;;5114062;28;20172;-87
2023/04/21 06:46:54;;;;;;;13.97;11.60;;;10.60;1.00;;;;;;5114152;28;20286;-83
2023/04/21 06:49:19;;;;;;;16.00;11.30;;;10.60;1.00;;;;;;5112702;28;20219;-85
2023/04/21 06:51:45;;;;;;;15.83;11.33;;;10.60;1.00;;;;;;5112692;28;20220;-85
2023/04/21 06:54:10;;;;;;;17.20;12.27;;;10.60;1.00;;;;;;5112799;28;20246;-85
2023/04/21 06:56:36;;;;;;;16.60;10.80;;;10.70;1.00;;;;;;5114526;28;20216;-85
2023/04/21 06:59:02;;;;;;;17.50;12.53;;;10.70;1.00;;;;;;5113836;28;20195;-85
2023/04/21 07:01:27;;;;;;;16.37;12.50;;;10.80;1.00;;;;;;5111810;28;20171;-87
2023/04/21 07:03:53;;;;;;;18.20;12.83;;;10.80;1.00;;;;;;5112245;28;20713;-87
2023/04/21 07:06:19;;;;;;;16.33;12.80;;;10.80;1.00;;;;;;5113703;28;20599;-85
2023/04/21 07:08:44;;;;;;;16.73;12.57;;;10.80;1.00;;;;;;5112427;28;20719;-84
2023/04/21 07:11:10;;;;;;;17.43;12.87;;;11.00;1.00;;;;;;5113803;28;20285;-85
2023/04/21 07:13:35;;;;;;;18.77;12.30;;;11.00;1.00;;;;;;5112493;28;20576;-85
2023/04/21 07:16:01;;;;;;;16.60;12.47;;;11.00;1.00;;;;;;5112032;28;20169;-85
2023/04/21 07:18:26;;;;;;;16.27;11.77;;;11.00;1.00;;;;;;5114349;28;20207;-85
2023/04/21 07:20:52;;;;;;;15.47;11.23;;;11.10;1.00;;;;;;5114362;28;20171;-85
2023/04/21 07:23:18;;;;;;;16.40;11.57;;;11.10;1.00;;;;;;5090869;28;20180;-85
2023/04/21 07:25:43;;;;;;;16.03;11.70;;;11.10;1.00;;;;;;5072428;28;20180;-85
2023/04/21 07:28:09;;;;;;;17.83;12.73;;;11.10;1.00;;;;;;5073387;28;20197;-83
2023/04/21 07:30:35;;;;;;;16.33;11.97;;;11.10;1.00;;;;;;5071793;28;20180;-84
2023/04/21 07:33:01;;;;;;;14.77;11.10;;;11.20;1.00;;;;;;5071806;28;20169;-83
2023/04/21 07:35:27;;;;;;;15.10;11.60;;;11.20;1.00;;;;;;5072838;28;20172;-85
2023/04/21 07:37:52;;;;;;;15.43;11.77;;;11.30;1.00;;;;;;5073902;28;20207;-86
2023/04/21 07:40:18;;;;;;;16.70;12.10;;;11.30;1.00;;;;;;5089364;28;20172;-84
2023/04/21 07:42:44;;;;;;;16.33;12.57;;;11.40;1.00;;;;;;5091720;28;20178;-84
2023/04/21 07:45:10;;;;;;;16.30;11.83;;;11.50;99.90;;;;;;5092734;28;20662;-83
2023/04/21 07:47:36;;;;;;;17.43;12.30;;;11.50;99.90;;;;;;5096663;28;20211;-83
2023/04/21 07:50:01;;;;;;;17.47;12.70;;;11.50;1.00;;;;;;5096023;28;20204;-84
2023/04/21 07:52:27;;;;;;;17.03;12.77;;;11.60;99.90;;;;;;5095895;28;20177;-82
2023/04/21 07:54:52;;;;;;;18.60;13.43;;;11.80;1.00;;;;;;5097902;28;20196;-84
2023/04/21 07:57:18;;;;;;;15.70;12.53;;;11.90;1.00;;;;;;5096161;28;20249;-86
2023/04/21 07:59:44;;;;;;;15.40;12.23;;;12.00;1.00;;;;;;5095280;28;20177;-82
2023/04/21 08:02:09;;;;;;;17.60;12.30;;;12.10;1.00;;;;;;5095833;28;20187;-83
2023/04/21 08:04:35;;;;;;;14.93;11.90;;;12.10;1.00;;;;;;5097729;28;20195;-85
2023/04/21 08:07:01;;;;;;;14.60;11.77;;;12.30;91.10;;;;;;5097284;28;20216;-82
2023/04/21 08:09:26;;;;;;;16.03;12.40;;;12.30;33.90;;;;;;5096336;28;20253;-83
2023/04/21 08:11:53;;;;;;;16.60;11.77;;;12.50;1.00;;;;;;5102005;28;20177;-83
2023/04/21 08:14:19;;;;;;;14.57;10.67;;;12.50;1.00;;;;;;5111112;28;20199;-82
2023/04/21 08:16:45;;;;;;;14.90;11.17;;;12.60;99.90;;;;;;5101969;28;20288;-84
2023/04/21 08:19:10;;;;;;;15.00;11.70;;;12.70;1.00;;;;;;5108283;28;20167;-82
2023/04/21 08:21:36;;;;;;;13.10;10.87;;;12.80;1.00;;;;;;5116116;28;20586;-84
2023/04/21 08:24:02;;;;;;;15.17;10.40;;;13.00;1.00;;;;;;5111239;28;20185;-84
2023/04/21 08:26:29;;;;;;;12.77;9.87;;;13.20;99.90;;;;;;5108220;28;20671;-84
2023/04/21 08:28:55;;;;;;;12.77;8.57;;;13.40;1.00;;;;;;5117531;28;20196;-85
2023/04/21 08:31:21;;;;;;;13.27;9.27;;;13.60;45.20;;;;;;5119923;28;20168;-84
2023/04/21 08:33:46;;;;;;;11.20;8.43;;;13.80;99.90;;;;;;5115144;28;20202;-83
2023/04/21 08:36:12;;;;;;;8.80;7.50;;;14.10;99.90;;;;;;5105923;28;20242;-84
2023/04/21 08:38:38;;;;;;;9.60;8.03;;;14.30;99.90;;;;;;5116915;28;20183;-83
2023/04/21 08:41:04;;;;;;;10.70;8.77;;;14.20;1.00;;;;;;5118195;28;20252;-83
2023/04/21 08:43:30;;;;;;;8.70;7.07;;;14.20;99.90;;;;;;5118034;28;20646;-83
2023/04/21 08:45:56;;;;;;;9.10;7.43;;;14.40;1.00;;;;;;5117259;28;20176;-84
2023/04/21 08:48:23;;;;;;;6.93;5.93;;;14.70;1.00;;;;;;5115987;28;20203;-84
2023/04/21 08:50:50;;;;;;;8.30;5.97;;;15.00;1.00;;;;;;5117222;28;20190;-84
2023/04/21 08:53:17;;;;;;;8.83;6.67;;;15.30;1.00;;;;;;5117087;28;20178;-84
2023/04/21 08:55:44;;;;;;;9.57;6.77;;;15.50;99.90;;;;;;5117584;28;20164;-84
2023/04/21 08:58:10;;;;;;;7.97;6.53;;;15.40;99.90;;;;;;5115957;28;20192;-84
2023/04/21 09:00:36;;;;;;;7.00;6.10;;;15.20;99.90;;;;;;5116126;28;20159;-84
2023/04/21 09:03:04;;;;;;;8.50;6.07;;;15.30;90.20;;;;;;5105527;28;20200;-84
2023/04/21 09:05:32;;;;;;;7.90;6.40;;;15.40;13.70;;;;;;5115150;28;20179;-82
2023/04/21 09:08:13;;;;;;;5.80;5.20;;;15.70;99.90;;;;;;5114799;28;20192;-84
2023/04/21 09:10:49;;;;;;;6.90;5.63;;;16.10;45.30;;;;;;5113229;28;20179;-84
2023/04/21 09:13:16;;;;;;;8.43;5.50;;;16.30;1.00;;;;;;5112459;28;20299;-85
2023/04/21 09:15:47;;;;;;;8.07;6.10;;;16.50;1.00;;;;;;5102700;28;20256;-85
2023/04/21 09:18:17;;;;;;;7.87;6.17;;;16.80;91.50;;;;;;5094137;28;20332;-84
2023/04/21 09:20:44;;;;;;;7.70;5.87;;;16.80;1.00;;;;;;5092863;28;20225;-84
2023/04/21 09:23:10;;;;;;;9.00;7.20;;;16.90;1.00;;;;;;5092765;28;20578;-83
2023/04/21 09:25:41;;;;;;;8.43;6.63;;;16.80;1.00;;;;;;5092837;28;20172;-84
2023/04/21 09:28:08;;;;;;;6.47;5.53;;;17.10;1.00;;;;;;5094382;28;20195;-84
2023/04/21 09:30:36;;;;;;;6.77;5.30;;;17.20;99.90;;;;;;5092631;28;20287;-84
2023/04/21 09:33:01;;;;;;;6.07;5.47;;;17.70;1.00;;;;;;5093170;28;20200;-86
2023/04/21 09:35:35;;;;;;;7.20;5.87;;;18.00;1.00;;;;;;5093250;28;20165;-85
2023/04/21 09:38:02;;;;;;;6.57;5.40;;;18.20;99.90;;;;;;5092983;28;20192;-84
2023/04/21 09:40:29;;;;;;;8.00;5.70;;;18.10;99.90;;;;;;5094154;28;20169;-84
2023/04/21 09:42:54;;;;;;;5.80;5.03;;;17.60;99.90;;;;;;5094360;28;20226;-84
2023/04/21 09:45:24;;;;;;;6.07;4.83;;;17.70;99.90;;;;;;5094325;28;20198;-85
2023/04/21 09:47:55;;;;;;;6.27;4.97;;;18.00;99.90;;;;;;5056340;28;1043735;-84
2023/04/21 09:50:21;;;;;;;5.17;4.30;;;18.10;99.90;;;;;;5094320;28;20229;-83
2023/04/21 09:52:50;;;;;;;5.63;5.03;;;18.30;99.90;;;;;;5093558;28;20180;-83
2023/04/21 09:55:17;;;;;;;6.40;4.93;;;18.50;99.90;;;;;;5091240;28;20272;-84
2023/04/21 09:57:46;;;;;;;6.27;5.23;;;18.80;1.00;;;;;;5102658;28;20623;-84
2023/04/21 10:00:12;;;;;;;5.90;4.90;;;19.00;99.90;;;;;;5102686;28;20172;-84
2023/04/21 10:02:48;;;;;;;8.07;5.30;;;19.20;11.20;;;;;;5104857;28;20551;-83
2023/04/21 10:05:14;;;;;;;5.57;5.07;;;19.10;1.00;;;;;;5111933;28;20262;-84
2023/04/21 10:07:40;;;;;;;5.37;4.80;;;18.70;1.00;;;;;;5107164;28;20220;-83
2023/04/21 10:10:23;;;;;;;6.57;5.13;;;18.70;1.00;;;;;;5115506;27;20207;-84
2023/04/21 10:12:50;;;;;;;5.97;4.30;;;18.50;1.00;;;;;;5099110;28;20267;-83
2023/04/21 10:15:48;;;;;;;6.30;4.93;;;18.20;1.00;;;;;;5092835;28;20172;-83
2023/04/21 10:18:21;;;;;;;5.83;5.10;;;18.60;99.90;;;;;;5079767;28;20277;-83
2023/04/21 10:21:05;;;;;;;5.87;4.90;;;18.90;1.00;;;;;;5105193;28;20200;-85
2023/04/21 10:23:58;;;;;;;5.45;4.70;;;19.00;90.40;;;;;;5114916;28;20547;-84
2023/04/21 10:26:33;;;;;;;5.53;4.37;;;19.10;1.00;;;;;;5110485;28;20264;-85
2023/04/21 10:29:08;;;;;;;4.93;4.43;;;18.80;1.00;;;;;;5101225;28;20196;-84
2023/04/21 10:31:35;;;;;;;6.13;4.37;;;18.80;1.00;;;;;;5107352;28;20192;-82
2023/04/21 10:34:06;;;;;;;4.20;3.80;;;19.20;1.00;;;;;;5085910;28;20173;-81
2023/04/21 10:36:47;;;;;;;4.13;3.73;;;19.50;1.00;;;;;;5074021;28;20219;-84
2023/04/21 10:39:36;;;;;;;4.80;3.87;;;19.50;1.00;;;;;;5072172;28;20177;-84
2023/04/21 10:42:25;;;;;;;3.60;3.30;;;19.60;1.00;;;;;;5099380;28;20176;-85
2023/04/21 10:44:57;;;;;;;4.50;3.73;;;19.60;1.00;;;;;;5073962;28;20173;-84
2023/04/21 10:47:35;;;;;;;3.88;3.42;;;19.60;1.00;;;;;;5112989;22;20273;-85
2023/04/21 10:50:10;;;;;;;4.45;3.47;;;19.80;1.00;;;;;;5112352;28;20207;-85
2023/04/21 10:52:35;;;;;;;5.22;3.50;;;20.10;1.00;;;;;;5112611;28;20202;-85
2023/04/21 10:55:01;;;;;;;3.75;3.35;;;20.30;1.00;;;;;;5111265;28;20175;-85
2023/04/21 10:57:31;;;;;;;4.78;3.55;;;20.10;1.00;;;;;;5111525;28;20188;-85
2023/04/21 10:59:56;;;;;;;3.97;3.10;;;20.10;1.00;;;;;;5112504;28;20175;-85
2023/04/21 11:02:22;;;;;;;3.55;3.17;;;20.20;1.00;;;;;;5112276;28;20173;-85
2023/04/21 11:04:52;;;;;;;4.72;3.63;;;20.20;1.00;;;;;;5111571;28;20168;-85
2023/04/21 11:07:24;;;;;;;4.43;3.35;;;20.00;1.00;;;;;;5112365;28;20188;-85
2023/04/21 11:09:58;;;;;;;4.40;3.40;;;19.90;1.00;;;;;;5112558;28;20207;-85
2023/04/21 11:12:33;;;;;;;4.85;4.03;;;20.30;1.00;;;;;;5110982;28;20167;-85
2023/04/21 11:15:03;;;;;;;3.75;3.33;;;20.50;1.00;;;;;;5112683;28;20657;-86
2023/04/21 11:17:28;;;;;;;5.53;4.05;;;20.40;1.00;;;;;;5111003;28;20191;-85
2023/04/21 11:19:55;;;;;;;4.65;3.78;;;20.40;1.00;;;;;;5111155;28;20171;-85
2023/04/21 11:22:23;;;;;;;4.13;3.72;;;20.60;1.00;;;;;;5116303;28;20544;-85
2023/04/21 11:24:50;;;;;;;3.88;3.28;;;20.60;1.00;;;;;;5116892;28;20221;-85
2023/04/21 11:27:16;;;;;;;3.92;3.47;;;20.80;1.00;;;;;;5115245;28;20199;-85
2023/04/21 11:29:45;;;;;;;4.20;3.20;;;21.00;1.00;;;;;;5116284;28;20187;-85
2023/04/21 11:32:11;;;;;;;4.93;3.92;;;21.00;1.00;;;;;;5115546;28;20199;-85
2023/04/21 11:34:37;;;;;;;5.95;3.90;;;21.40;1.00;;;;;;5116344;28;20567;-85
2023/04/21 11:37:03;;;;;;;5.53;3.67;;;21.40;1.00;;;;;;5115719;28;20188;-81
2023/04/21 11:39:29;;;;;;;3.80;3.40;;;21.40;1.00;;;;;;5115424;28;20171;-84
2023/04/21 11:41:54;;;;;;;4.03;3.63;;;21.40;1.00;;;;;;5115489;28;20168;-83
2023/04/21 11:44:37;;;;;;;4.70;3.65;;;21.40;1.00;;;;;;5116851;28;20194;-82
2023/04/21 11:47:36;;;;;;;3.55;3.10;;;21.30;1.00;;;;;;5116336;27;20203;-84
2023/04/21 11:50:02;;;;;;;3.72;3.42;;;21.30;99.90;;;;;;5082327;28;20215;-83
2023/04/21 11:52:32;;;;;;;4.72;3.78;;;21.50;1.00;;;;;;5116562;28;20315;-83
2023/04/21 11:55:14;;;;;;;3.70;3.15;;;21.80;1.00;;;;;;5115299;28;20175;-83
2023/04/21 11:57:40;;;;;;;3.58;3.28;;;21.80;99.90;;;;;;5114892;28;20195;-83
2023/04/21 12:00:10;;;;;;;5.25;3.63;;;21.70;99.90;;;;;;5115913;27;20168;-83
2023/04/21 12:02:36;;;;;;;3.80;3.40;;;21.70;1.00;;;;;;5115066;28;20255;-83
2023/04/21 12:05:10;;;;;;;4.60;3.78;;;21.60;99.90;;;;;;5115069;28;20168;-83
2023/04/21 12:07:37;;;;;;;3.70;3.40;;;21.60;99.90;;;;;;5114784;28;20199;-84
2023/04/21 12:10:13;;;;;;;3.63;3.33;;;21.50;99.90;;;;;;5114498;28;20277;-83
2023/04/21 12:12:42;;;;;;;4.20;3.30;;;21.40;1.00;;;;;;5116146;28;20167;-83
2023/04/21 12:15:17;;;;;;;5.05;3.70;;;21.40;99.90;;;;;;5115986;28;20187;-84
2023/04/21 12:17:47;;;;;;;3.72;3.33;;;21.40;99.90;;;;;;5115186;28;20717;-84
2023/04/21 12:20:19;;;;;;;4.75;4.00;;;21.10;1.00;;;;;;5115555;28;20642;-84
2023/04/21 12:22:45;;;;;;;3.85;3.55;;;21.20;1.00;;;;;;5114473;28;20171;-84
2023/04/21 12:25:11;;;;;;;4.18;3.75;;;21.50;1.00;;;;;;5115565;28;20175;-84
2023/04/21 12:27:37;;;;;;;4.90;4.10;;;21.60;1.00;;;;;;5114551;28;20207;-84
2023/04/21 12:30:03;;;;;;;4.85;3.72;;;22.10;1.00;;;;;;5114314;28;20238;-83
2023/04/21 12:32:28;;;;;;;4.93;3.75;;;22.30;99.90;;;;;;5114176;28;20168;-85
2023/04/21 12:34:54;;;;;;;5.55;4.10;;;22.50;1.00;;;;;;5113966;28;20638;-85
2023/04/21 12:37:20;;;;;;;4.22;3.83;;;22.10;99.90;;;;;;5114220;28;20693;-86
2023/04/21 12:39:46;;;;;;;4.35;3.60;;;21.70;99.90;;;;;;5115807;28;20225;-80
2023/04/21 12:42:11;;;;;;;5.97;4.00;;;21.60;1.00;;;;;;5116362;28;20574;-81
2023/04/21 12:44:38;;;;;;;4.72;3.88;;;21.90;1.00;;;;;;5115403;28;20176;-83